createdAt,value
2018-05-03T00:01:04.088Z,22.37
2018-05-03T00:03:30.169Z,22.60
2018-05-03T00:05:56.248Z,22.80
2018-05-03T00:08:22.342Z,21.83
2018-05-03T00:10:48.418Z,23.73
2018-05-03T00:13:14.492Z,24.17
2018-05-03T00:15:40.574Z,23.33
2018-05-03T00:18:06.656Z,24.83
2018-05-03T00:20:33.483Z,23.70
2018-05-03T00:22:59.559Z,25.10
2018-05-03T00:25:25.653Z,23.20
2018-05-03T00:27:51.737Z,21.17
2018-05-03T00:30:17.829Z,20.37
2018-05-03T00:32:43.896Z,20.33
2018-05-03T00:35:09.972Z,20.60
2018-05-03T00:37:36.041Z,20.00
2018-05-03T00:40:02.110Z,20.13
2018-05-03T00:42:28.176Z,21.07
2018-05-03T00:44:54.256Z,20.47
2018-05-03T00:47:21.063Z,21.27
2018-05-03T00:49:47.143Z,23.03
2018-05-03T00:52:13.240Z,22.27
2018-05-03T00:54:47.279Z,22.37
2018-05-03T00:57:13.340Z,22.80
2018-05-03T00:59:39.400Z,23.00
2018-05-03T01:02:06.235Z,22.77
2018-05-03T01:04:32.297Z,23.00
2018-05-03T01:06:58.373Z,23.63
2018-05-03T01:09:24.450Z,24.70
2018-05-03T01:11:50.544Z,25.90
2018-05-03T01:14:17.367Z,25.30
2018-05-03T01:16:43.465Z,26.63
2018-05-03T01:19:09.574Z,27.13
2018-05-03T01:21:35.749Z,27.40
2018-05-03T01:24:01.909Z,28.47
2018-05-03T01:26:28.101Z,29.30
2018-05-03T01:28:54.225Z,32.73
2018-05-03T01:31:20.369Z,32.83
2018-05-03T01:33:47.284Z,31.37
2018-05-03T01:36:26.590Z,29.67
2018-05-03T01:38:52.747Z,31.13
2018-05-03T01:41:18.885Z,29.93
2018-05-03T01:43:45.029Z,30.00
2018-05-03T01:46:11.121Z,28.37
2018-05-03T01:48:37.184Z,29.10
2018-05-03T01:51:04.733Z,31.70
2018-05-03T01:53:30.801Z,29.20
2018-05-03T01:55:56.860Z,30.20
2018-05-03T01:58:22.936Z,29.10
2018-05-03T02:00:49.009Z,31.00
2018-05-03T02:03:15.072Z,30.37
2018-05-03T02:05:41.131Z,31.90
2018-05-03T02:08:07.196Z,34.30
2018-05-03T02:10:33.263Z,33.47
2018-05-03T02:13:00.080Z,34.73
2018-05-03T02:15:26.148Z,35.03
2018-05-03T02:17:52.204Z,36.87
2018-05-03T02:20:18.257Z,41.77
2018-05-03T02:22:44.320Z,37.50
2018-05-03T02:25:10.387Z,36.83
2018-05-03T02:27:36.432Z,37.13
2018-05-03T02:30:03.245Z,40.70
2018-05-03T02:32:29.323Z,38.77
2018-05-03T02:34:56.132Z,37.93
2018-05-03T02:37:22.188Z,35.43
2018-05-03T02:39:48.993Z,36.67
2018-05-03T02:42:15.060Z,35.83
2018-05-03T02:44:41.872Z,34.67
2018-05-03T02:47:07.923Z,34.93
2018-05-03T02:49:34.752Z,33.13
2018-05-03T02:52:00.821Z,35.10
2018-05-03T02:54:26.884Z,35.87
2018-05-03T02:56:52.956Z,35.50
2018-05-03T02:59:37.896Z,36.67
2018-05-03T03:02:10.200Z,35.40
2018-05-03T03:12:16.719Z,35.70
2018-05-03T03:15:07.713Z,35.63
2018-05-03T03:17:59.531Z,35.03
2018-05-03T03:24:20.663Z,33.63
2018-05-03T03:27:11.780Z,33.10
2018-05-03T03:29:57.298Z,32.57
2018-05-03T03:32:42.072Z,32.67
2018-05-03T03:38:55.552Z,33.70
2018-05-03T03:41:45.939Z,33.20
2018-05-03T03:44:30.716Z,33.93
2018-05-03T03:46:56.804Z,32.00
2018-05-03T03:49:22.886Z,32.93
2018-05-03T03:51:48.960Z,31.97
2018-05-03T03:54:15.064Z,33.90
2018-05-03T03:56:41.139Z,32.97
2018-05-03T03:59:07.293Z,32.73
2018-05-03T04:01:34.021Z,32.67
2018-05-03T04:04:00.099Z,31.40
2018-05-03T04:06:26.164Z,29.33
2018-05-03T04:08:52.223Z,32.07
2018-05-03T04:11:19.032Z,30.53
2018-05-03T04:13:45.092Z,29.43
2018-05-03T04:16:11.147Z,29.90
2018-05-03T04:18:55.953Z,31.27
2018-05-03T04:21:40.803Z,31.07
2018-05-03T04:24:25.560Z,29.53
2018-05-03T04:26:51.628Z,30.47
2018-05-03T04:29:18.429Z,29.07
2018-05-03T04:31:44.496Z,29.23
2018-05-03T04:34:11.305Z,29.90
2018-05-03T04:36:37.372Z,29.73
2018-05-03T04:39:04.404Z,28.70
2018-05-03T04:41:31.212Z,29.27
2018-05-03T04:43:57.267Z,28.57
2018-05-03T04:46:24.068Z,27.83
2018-05-03T04:48:50.157Z,28.67
2018-05-03T04:51:16.220Z,27.63
2018-05-03T04:53:42.296Z,28.90
2018-05-03T04:56:09.104Z,29.23
2018-05-03T04:58:35.191Z,29.00
2018-05-03T05:01:01.267Z,29.13
2018-05-03T05:03:27.349Z,29.50
2018-05-03T05:05:53.419Z,27.93
2018-05-03T05:08:19.496Z,27.30
2018-05-03T05:10:45.576Z,26.93
2018-05-03T05:13:12.402Z,27.20
2018-05-03T05:15:38.496Z,28.43
2018-05-03T05:18:04.572Z,26.77
2018-05-03T05:20:31.457Z,24.10
2018-05-03T05:22:57.474Z,21.60
2018-05-03T05:25:23.563Z,21.47
2018-05-03T05:27:49.632Z,19.50
2018-05-03T05:30:15.724Z,21.30
2018-05-03T05:32:42.551Z,19.93
2018-05-03T05:35:08.632Z,18.60
2018-05-03T05:37:34.700Z,18.60
2018-05-03T05:40:00.781Z,16.13
2018-05-03T05:42:26.875Z,16.80
2018-05-03T05:44:52.958Z,17.83
2018-05-03T05:47:19.025Z,17.27
2018-05-03T05:49:45.855Z,16.10
2018-05-03T05:52:12.676Z,17.60
2018-05-03T05:54:38.788Z,17.70
2018-05-03T05:57:04.868Z,19.27
2018-05-03T05:59:30.940Z,17.60
2018-05-03T06:01:57.004Z,16.40
2018-05-03T06:04:23.806Z,16.33
2018-05-03T06:06:49.884Z,19.40
2018-05-03T06:09:15.956Z,19.60
2018-05-03T06:11:42.028Z,21.70
2018-05-03T06:14:08.836Z,21.20
2018-05-03T06:16:34.900Z,20.47
2018-05-03T06:19:00.974Z,18.33
2018-05-03T06:21:27.040Z,17.73
2018-05-03T06:23:53.842Z,18.13
2018-05-03T06:26:19.904Z,19.33
2018-05-03T06:28:46.704Z,18.57
2018-05-03T06:31:12.792Z,18.80
2018-05-03T06:33:38.852Z,17.27
2018-05-03T06:36:04.905Z,19.10
2018-05-03T06:38:31.048Z,19.33
2018-05-03T06:40:57.063Z,17.87
2018-05-03T06:43:23.880Z,19.37
2018-05-03T06:45:49.965Z,17.37
2018-05-03T06:48:16.031Z,17.97
2018-05-03T06:50:42.137Z,19.63
2018-05-03T06:53:08.179Z,17.23
2018-05-03T06:55:34.240Z,18.47
2018-05-03T06:58:01.053Z,17.63
2018-05-03T07:00:27.116Z,18.13
2018-05-03T07:02:54.011Z,17.20
2018-05-03T07:05:20.105Z,17.97
2018-05-03T07:07:46.175Z,17.30
2018-05-03T07:10:31.236Z,14.77
2018-05-03T07:12:59.361Z,18.07
2018-05-03T07:15:38.640Z,17.03
2018-05-03T07:18:04.707Z,16.30
2018-05-03T07:20:31.547Z,18.80
2018-05-03T07:22:58.344Z,18.00
2018-05-03T07:25:34.601Z,17.67
2018-05-03T07:28:12.576Z,16.80
2018-05-03T07:30:43.496Z,13.43
2018-05-03T07:33:09.595Z,15.87
2018-05-03T07:38:36.619Z,13.43
2018-05-03T07:41:02.796Z,13.47
2018-05-03T07:43:37.004Z,12.20
2018-05-03T07:46:05.084Z,13.20
2018-05-03T07:48:42.947Z,12.53
2018-05-03T07:51:08.904Z,13.60
2018-05-03T07:53:48.773Z,12.40
2018-05-03T07:56:35.660Z,13.63
2018-05-03T07:59:02.452Z,13.33
2018-05-03T08:01:28.536Z,13.90
2018-05-03T08:03:54.616Z,14.97
2018-05-03T08:06:20.691Z,14.20
2018-05-03T08:09:14.736Z,13.40
2018-05-03T08:14:59.248Z,13.80
2018-05-03T08:17:25.329Z,13.27
2018-05-03T08:19:51.401Z,14.77
2018-05-03T08:22:17.473Z,15.27
2018-05-03T08:24:43.580Z,13.57
2018-05-03T08:27:09.661Z,14.30
2018-05-03T08:29:35.737Z,13.90
2018-05-03T08:32:01.816Z,12.83
2018-05-03T08:34:27.904Z,12.27
2018-05-03T08:36:53.991Z,12.70
2018-05-03T08:39:20.808Z,13.43
2018-05-03T08:41:46.884Z,12.07
2018-05-03T08:44:12.958Z,12.00
2018-05-03T08:46:39.041Z,13.17
2018-05-03T08:49:05.108Z,12.37
2018-05-03T08:51:31.203Z,12.87
2018-05-03T08:53:57.275Z,12.37
2018-05-03T08:56:23.357Z,12.97
2018-05-03T08:58:49.436Z,12.57
2018-05-03T09:01:16.305Z,12.73
2018-05-03T09:03:42.333Z,12.30
2018-05-03T09:06:08.404Z,12.60
2018-05-03T09:08:34.490Z,12.47
2018-05-03T09:11:00.558Z,12.47
2018-05-03T09:13:26.644Z,12.63
2018-05-03T09:15:52.700Z,13.07
2018-05-03T09:18:18.780Z,12.00
2018-05-03T09:30:17.665Z,12.67
2018-05-03T09:32:43.736Z,12.30
2018-05-03T09:35:10.550Z,12.40
2018-05-03T09:37:36.712Z,12.37
2018-05-03T09:40:03.525Z,12.37
2018-05-03T09:42:29.592Z,12.70
2018-05-03T09:44:55.664Z,12.23
2018-05-03T09:47:21.723Z,13.10
2018-05-03T09:49:48.540Z,12.47
2018-05-03T09:52:14.609Z,13.00
2018-05-03T09:54:40.692Z,12.95
2018-05-03T09:57:06.763Z,12.70
2018-05-03T09:59:32.848Z,11.63
2018-05-03T10:01:58.912Z,12.20
2018-05-03T10:04:25.006Z,12.27
2018-05-03T10:06:51.083Z,11.40
2018-05-03T10:09:17.156Z,11.60
2018-05-03T10:11:43.978Z,11.50
2018-05-03T10:14:10.072Z,11.77
2018-05-03T10:16:36.137Z,12.10
2018-05-03T10:19:02.192Z,11.88
2018-05-03T10:21:29.004Z,12.07
2018-05-03T10:23:55.069Z,11.85
2018-05-03T10:26:21.140Z,12.23
2018-05-03T10:28:47.287Z,12.25
2018-05-03T10:31:13.304Z,11.57
2018-05-03T10:33:39.367Z,12.30
2018-05-03T10:36:05.449Z,12.68
2018-05-03T10:38:32.620Z,11.23
2018-05-03T10:40:59.433Z,12.25
2018-05-03T10:43:25.499Z,11.55
2018-05-03T10:45:52.309Z,11.35
2018-05-03T10:48:18.393Z,11.45
2018-05-03T10:50:44.456Z,11.88
2018-05-03T10:53:10.529Z,11.43
2018-05-03T10:55:36.585Z,11.00
2018-05-03T10:58:02.660Z,11.77
2018-05-03T11:00:29.500Z,10.95
2018-05-03T11:02:56.332Z,11.18
2018-05-03T11:05:22.440Z,11.52
2018-05-03T11:07:48.495Z,11.85
2018-05-03T11:10:15.316Z,11.02
2018-05-03T11:12:41.393Z,10.52
2018-05-03T11:15:07.472Z,10.52
2018-05-03T11:17:33.568Z,12.02
2018-05-03T11:19:59.648Z,11.55
2018-05-03T11:22:26.479Z,11.23
2018-05-03T11:24:53.304Z,11.32
2018-05-03T11:27:19.384Z,11.65
2018-05-03T11:29:53.613Z,11.30
2018-05-03T11:32:19.691Z,11.95
2018-05-03T11:34:46.516Z,11.12
2018-05-03T11:37:12.601Z,11.25
2018-05-03T11:39:38.680Z,10.93
2018-05-03T11:42:05.501Z,12.07
2018-05-03T11:44:31.586Z,11.32
2018-05-03T11:46:57.662Z,11.18
2018-05-03T11:49:23.749Z,11.80
2018-05-03T11:51:49.820Z,12.23
2018-05-03T11:54:16.648Z,12.32
2018-05-03T11:56:42.719Z,12.45
2018-05-03T11:59:08.856Z,12.02
2018-05-03T12:01:35.639Z,13.07
2018-05-03T12:04:01.729Z,12.95
2018-05-03T12:06:27.811Z,12.18
2018-05-03T12:08:54.640Z,13.02
2018-05-03T12:11:20.716Z,12.25
2018-05-03T12:13:46.780Z,11.98
2018-05-03T12:16:12.868Z,12.52
2018-05-03T12:18:38.951Z,12.48
2018-05-03T12:21:05.064Z,13.02
2018-05-03T12:23:31.122Z,11.68
2018-05-03T12:25:57.252Z,11.65
2018-05-03T12:28:23.328Z,11.52
2018-05-03T12:30:49.409Z,11.80
2018-05-03T12:33:15.488Z,13.02
2018-05-03T12:35:41.560Z,11.65
2018-05-03T12:38:07.640Z,12.48
2018-05-03T12:40:33.709Z,11.40
2018-05-03T12:42:59.787Z,12.20
2018-05-03T12:45:25.880Z,11.38
2018-05-03T12:47:51.971Z,11.77
2018-05-03T12:50:18.816Z,11.80
2018-05-03T12:52:45.629Z,11.35
2018-05-03T12:55:11.712Z,11.90
2018-05-03T12:57:37.804Z,11.77
2018-05-03T13:00:04.633Z,12.55
2018-05-03T13:02:30.737Z,11.52
2018-05-03T13:04:56.799Z,11.93
2018-05-03T13:07:23.608Z,11.68
2018-05-03T13:09:49.688Z,11.38
2018-05-03T13:12:15.760Z,11.60
2018-05-03T13:14:41.843Z,11.40
2018-05-03T13:17:07.916Z,11.10
2018-05-03T13:19:34.004Z,11.23
2018-05-03T13:22:00.073Z,11.68
2018-05-03T13:24:26.160Z,12.10
2018-05-03T13:26:52.232Z,10.48
2018-05-03T13:29:19.060Z,10.25
2018-05-03T13:31:45.149Z,11.77
2018-05-03T13:34:11.254Z,11.23
2018-05-03T13:36:37.325Z,10.48
2018-05-03T13:39:03.403Z,8.82
2018-05-03T13:41:29.560Z,8.40
2018-05-03T13:43:55.640Z,6.60
2018-05-03T13:46:22.473Z,6.62
2018-05-03T13:48:49.298Z,6.50
2018-05-03T13:51:15.373Z,6.87
2018-05-03T13:53:41.449Z,6.00
2018-05-03T13:56:07.552Z,5.50
2018-05-03T13:58:33.624Z,6.03
2018-05-03T14:00:59.708Z,5.80
2018-05-03T14:03:25.768Z,6.07
2018-05-03T14:05:51.839Z,5.60
2018-05-03T14:08:18.665Z,5.40
2018-05-03T14:10:45.477Z,5.68
2018-05-03T14:13:11.544Z,6.10
2018-05-03T14:15:38.360Z,6.40
2018-05-03T14:18:04.430Z,6.72
2018-05-03T14:20:30.495Z,6.18
2018-05-03T14:22:56.589Z,6.75
2018-05-03T14:25:22.655Z,6.80
2018-05-03T14:27:48.723Z,6.93
2018-05-03T14:30:15.523Z,6.72
2018-05-03T14:32:43.616Z,6.50
2018-05-03T14:35:09.692Z,7.57
2018-05-03T14:37:35.767Z,7.00
2018-05-03T14:40:02.567Z,6.97
2018-05-03T14:42:28.636Z,7.37
2018-05-03T14:44:55.453Z,7.82
2018-05-03T14:47:21.589Z,7.50
2018-05-03T14:49:47.603Z,8.88
2018-05-03T14:52:13.668Z,8.77
2018-05-03T14:54:40.479Z,9.23
2018-05-03T14:57:06.543Z,8.80
2018-05-03T14:59:32.630Z,8.10
2018-05-03T15:01:58.710Z,8.02
2018-05-03T15:04:24.777Z,8.48
2018-05-03T15:06:50.840Z,8.00
2018-05-03T15:09:17.652Z,8.00
2018-05-03T15:11:43.720Z,8.23
2018-05-03T15:14:09.805Z,7.93
2018-05-03T15:16:35.904Z,8.55
2018-05-03T15:19:01.961Z,7.62
2018-05-03T15:21:28.025Z,7.60
2018-05-03T15:23:54.117Z,7.60
2018-05-03T15:26:20.924Z,7.40
2018-05-03T15:28:46.988Z,7.53
2018-05-03T15:31:13.800Z,6.37
2018-05-03T15:33:39.871Z,6.40
2018-05-03T15:36:05.964Z,6.43
2018-05-03T15:38:32.017Z,6.18
2018-05-03T15:40:58.105Z,5.95
2018-05-03T15:43:24.163Z,5.72
2018-05-03T15:45:51.030Z,6.12
2018-05-03T15:48:17.095Z,5.43
2018-05-03T15:50:43.164Z,5.60
2018-05-03T15:53:09.241Z,5.50
2018-05-03T15:55:35.322Z,5.30
2018-05-03T15:58:01.385Z,5.40
2018-05-03T16:00:27.456Z,5.82
2018-05-03T16:02:54.281Z,5.50
2018-05-03T16:05:25.866Z,5.90
2018-05-03T16:07:51.960Z,4.80
2018-05-03T16:10:18.039Z,5.12
2018-05-03T16:12:44.124Z,5.07
2018-05-03T16:15:10.960Z,4.45
2018-05-03T16:17:37.796Z,5.12
2018-05-03T16:20:03.866Z,5.00
2018-05-03T16:22:29.954Z,5.22
2018-05-03T16:24:56.776Z,5.07
2018-05-03T16:27:22.866Z,4.53
2018-05-03T16:29:48.945Z,4.68
2018-05-03T16:32:15.020Z,4.87
2018-05-03T16:34:41.101Z,4.80
2018-05-03T16:37:07.915Z,4.87
2018-05-03T16:39:33.992Z,4.70
2018-05-03T16:42:00.104Z,4.95
